sensor_id;sensor_type;location;lat;lon;timestamp;P1;durP1;ratioP1;P2;durP2;ratioP2
24453;SDS011;12627;50.860;5.714;2022-12-18T00:00:59;30.27;;;10.40;;
24453;SDS011;12627;50.860;5.714;2022-12-18T00:03:31;18.30;;;9.03;;
24453;SDS011;12627;50.860;5.714;2022-12-18T00:05:58;17.60;;;8.97;;
24453;SDS011;12627;50.860;5.714;2022-12-18T00:08:25;10.53;;;4.87;;
24453;SDS011;12627;50.860;5.714;2022-12-18T00:10:54;16.87;;;7.23;;
24453;SDS011;12627;50.860;5.714;2022-12-18T00:13:22;10.23;;;5.83;;
24453;SDS011;12627;50.860;5.714;2022-12-18T00:15:49;11.20;;;5.33;;
24453;SDS011;12627;50.860;5.714;2022-12-18T00:18:16;6.37;;;3.67;;
24453;SDS011;12627;50.860;5.714;2022-12-18T00:20:43;7.07;;;3.63;;
24453;SDS011;12627;50.860;5.714;2022-12-18T00:23:11;10.70;;;8.93;;
24453;SDS011;12627;50.860;5.714;2022-12-18T00:25:39;18.33;;;7.07;;
24453;SDS011;12627;50.860;5.714;2022-12-18T00:28:07;16.87;;;8.77;;
24453;SDS011;12627;50.860;5.714;2022-12-18T00:30:35;19.57;;;7.27;;
24453;SDS011;12627;50.860;5.714;2022-12-18T00:33:02;1.97;;;1.87;;
24453;SDS011;12627;50.860;5.714;2022-12-18T00:35:29;6.27;;;4.03;;
24453;SDS011;12627;50.860;5.714;2022-12-18T00:37:57;14.43;;;7.97;;
24453;SDS011;12627;50.860;5.714;2022-12-18T00:40:25;22.57;;;8.57;;
24453;SDS011;12627;50.860;5.714;2022-12-18T00:42:52;12.10;;;7.27;;
24453;SDS011;12627;50.860;5.714;2022-12-18T00:45:22;8.30;;;6.53;;
24453;SDS011;12627;50.860;5.714;2022-12-18T00:47:50;16.53;;;7.27;;
24453;SDS011;12627;50.860;5.714;2022-12-18T00:50:17;18.43;;;6.53;;
24453;SDS011;12627;50.860;5.714;2022-12-18T00:52:45;9.40;;;6.07;;
24453;SDS011;12627;50.860;5.714;2022-12-18T00:55:12;13.93;;;8.47;;
24453;SDS011;12627;50.860;5.714;2022-12-18T00:57:39;7.50;;;4.73;;
24453;SDS011;12627;50.860;5.714;2022-12-18T01:00:07;17.43;;;6.63;;
24453;SDS011;12627;50.860;5.714;2022-12-18T01:02:38;7.03;;;3.97;;
24453;SDS011;12627;50.860;5.714;2022-12-18T01:05:06;19.20;;;9.47;;
24453;SDS011;12627;50.860;5.714;2022-12-18T01:07:34;1.60;;;1.50;;
24453;SDS011;12627;50.860;5.714;2022-12-18T01:10:02;29.03;;;9.10;;
24453;SDS011;12627;50.860;5.714;2022-12-18T01:12:29;13.27;;;7.73;;
24453;SDS011;12627;50.860;5.714;2022-12-18T01:14:56;14.17;;;8.60;;
24453;SDS011;12627;50.860;5.714;2022-12-18T01:17:24;15.60;;;5.47;;
24453;SDS011;12627;50.860;5.714;2022-12-18T01:19:53;7.63;;;4.07;;
24453;SDS011;12627;50.860;5.714;2022-12-18T01:22:20;13.73;;;5.17;;
24453;SDS011;12627;50.860;5.714;2022-12-18T01:24:47;6.20;;;5.57;;
24453;SDS011;12627;50.860;5.714;2022-12-18T01:27:14;12.03;;;6.37;;
24453;SDS011;12627;50.860;5.714;2022-12-18T01:29:41;8.27;;;5.27;;
24453;SDS011;12627;50.860;5.714;2022-12-18T01:32:08;8.10;;;4.83;;
24453;SDS011;12627;50.860;5.714;2022-12-18T01:34:36;3.40;;;2.37;;
24453;SDS011;12627;50.860;5.714;2022-12-18T01:37:05;6.20;;;5.70;;
24453;SDS011;12627;50.860;5.714;2022-12-18T01:39:32;25.87;;;6.13;;
24453;SDS011;12627;50.860;5.714;2022-12-18T01:42:00;10.47;;;4.80;;
24453;SDS011;12627;50.860;5.714;2022-12-18T01:44:52;6.37;;;4.63;;
24453;SDS011;12627;50.860;5.714;2022-12-18T01:47:23;6.47;;;3.43;;
24453;SDS011;12627;50.860;5.714;2022-12-18T01:49:54;7.07;;;4.33;;
24453;SDS011;12627;50.860;5.714;2022-12-18T01:52:23;3.40;;;3.10;;
24453;SDS011;12627;50.860;5.714;2022-12-18T01:54:52;3.90;;;3.57;;
24453;SDS011;12627;50.860;5.714;2022-12-18T01:57:20;4.13;;;3.37;;
24453;SDS011;12627;50.860;5.714;2022-12-18T01:59:49;3.77;;;3.40;;
24453;SDS011;12627;50.860;5.714;2022-12-18T02:02:19;7.07;;;3.80;;
24453;SDS011;12627;50.860;5.714;2022-12-18T02:04:47;4.20;;;3.90;;
24453;SDS011;12627;50.860;5.714;2022-12-18T02:07:15;3.37;;;3.20;;
24453;SDS011;12627;50.860;5.714;2022-12-18T02:09:53;11.27;;;4.20;;
24453;SDS011;12627;50.860;5.714;2022-12-18T02:12:26;6.63;;;3.73;;
24453;SDS011;12627;50.860;5.714;2022-12-18T02:14:59;13.57;;;6.00;;
24453;SDS011;12627;50.860;5.714;2022-12-18T02:17:35;5.87;;;3.83;;
24453;SDS011;12627;50.860;5.714;2022-12-18T02:20:08;2.30;;;1.93;;
24453;SDS011;12627;50.860;5.714;2022-12-18T02:22:45;4.63;;;3.17;;
24453;SDS011;12627;50.860;5.714;2022-12-18T02:25:24;3.87;;;3.57;;
24453;SDS011;12627;50.860;5.714;2022-12-18T02:28:06;8.83;;;4.67;;
24453;SDS011;12627;50.860;5.714;2022-12-18T02:30:38;4.20;;;3.23;;
24453;SDS011;12627;50.860;5.714;2022-12-18T02:33:07;9.07;;;3.97;;
24453;SDS011;12627;50.860;5.714;2022-12-18T02:35:36;10.70;;;3.20;;
24453;SDS011;12627;50.860;5.714;2022-12-18T02:38:05;7.70;;;5.70;;
24453;SDS011;12627;50.860;5.714;2022-12-18T02:40:33;9.63;;;5.40;;
24453;SDS011;12627;50.860;5.714;2022-12-18T02:43:02;8.07;;;5.93;;
24453;SDS011;12627;50.860;5.714;2022-12-18T02:45:35;15.27;;;4.97;;
24453;SDS011;12627;50.860;5.714;2022-12-18T02:48:11;15.57;;;6.17;;
24453;SDS011;12627;50.860;5.714;2022-12-18T02:50:41;21.70;;;8.80;;
24453;SDS011;12627;50.860;5.714;2022-12-18T02:53:13;3.23;;;2.50;;
24453;SDS011;12627;50.860;5.714;2022-12-18T02:55:48;9.27;;;4.80;;
24453;SDS011;12627;50.860;5.714;2022-12-18T02:58:28;4.63;;;3.87;;
24453;SDS011;12627;50.860;5.714;2022-12-18T03:00:59;9.43;;;4.27;;
24453;SDS011;12627;50.860;5.714;2022-12-18T03:03:33;6.30;;;4.80;;
24453;SDS011;12627;50.860;5.714;2022-12-18T03:06:06;6.33;;;4.93;;
24453;SDS011;12627;50.860;5.714;2022-12-18T03:08:37;13.10;;;6.83;;
24453;SDS011;12627;50.860;5.714;2022-12-18T03:11:07;9.13;;;7.10;;
24453;SDS011;12627;50.860;5.714;2022-12-18T03:13:39;13.23;;;6.80;;
24453;SDS011;12627;50.860;5.714;2022-12-18T03:16:10;7.33;;;2.40;;
24453;SDS011;12627;50.860;5.714;2022-12-18T03:18:42;11.60;;;6.60;;
24453;SDS011;12627;50.860;5.714;2022-12-18T03:21:14;4.70;;;4.23;;
24453;SDS011;12627;50.860;5.714;2022-12-18T03:23:46;7.03;;;4.73;;
24453;SDS011;12627;50.860;5.714;2022-12-18T03:26:17;2.77;;;1.80;;
24453;SDS011;12627;50.860;5.714;2022-12-18T03:28:51;6.13;;;4.17;;
24453;SDS011;12627;50.860;5.714;2022-12-18T03:31:23;15.53;;;7.10;;
24453;SDS011;12627;50.860;5.714;2022-12-18T03:33:53;6.53;;;4.33;;
24453;SDS011;12627;50.860;5.714;2022-12-18T03:36:21;10.30;;;5.87;;
24453;SDS011;12627;50.860;5.714;2022-12-18T03:38:49;15.37;;;8.57;;
24453;SDS011;12627;50.860;5.714;2022-12-18T03:41:18;5.93;;;5.30;;
24453;SDS011;12627;50.860;5.714;2022-12-18T03:43:57;9.60;;;4.73;;
24453;SDS011;12627;50.860;5.714;2022-12-18T03:46:32;4.50;;;2.97;;
24453;SDS011;12627;50.860;5.714;2022-12-18T03:49:08;9.60;;;6.43;;
24453;SDS011;12627;50.860;5.714;2022-12-18T03:51:42;7.00;;;4.37;;
24453;SDS011;12627;50.860;5.714;2022-12-18T03:54:14;11.73;;;7.67;;
24453;SDS011;12627;50.860;5.714;2022-12-18T03:56:44;13.63;;;5.53;;
24453;SDS011;12627;50.860;5.714;2022-12-18T03:59:16;9.40;;;3.30;;
24453;SDS011;12627;50.860;5.714;2022-12-18T04:01:46;8.53;;;5.87;;
24453;SDS011;12627;50.860;5.714;2022-12-18T04:04:15;12.90;;;4.87;;
24453;SDS011;12627;50.860;5.714;2022-12-18T04:06:45;6.10;;;3.17;;
24453;SDS011;12627;50.860;5.714;2022-12-18T04:09:14;6.67;;;3.97;;
24453;SDS011;12627;50.860;5.714;2022-12-18T04:11:41;6.47;;;4.80;;
24453;SDS011;12627;50.860;5.714;2022-12-18T04:14:09;3.23;;;2.90;;
24453;SDS011;12627;50.860;5.714;2022-12-18T04:16:38;4.77;;;2.67;;
24453;SDS011;12627;50.860;5.714;2022-12-18T04:19:05;11.73;;;5.77;;
24453;SDS011;12627;50.860;5.714;2022-12-18T04:21:32;9.73;;;5.37;;
24453;SDS011;12627;50.860;5.714;2022-12-18T04:24:00;7.10;;;3.77;;
24453;SDS011;12627;50.860;5.714;2022-12-18T04:26:27;11.87;;;7.33;;
24453;SDS011;12627;50.860;5.714;2022-12-18T04:28:54;13.93;;;9.27;;
24453;SDS011;12627;50.860;5.714;2022-12-18T04:31:21;19.80;;;9.47;;
24453;SDS011;12627;50.860;5.714;2022-12-18T04:33:50;6.20;;;5.30;;
24453;SDS011;12627;50.860;5.714;2022-12-18T04:36:17;5.40;;;3.87;;
24453;SDS011;12627;50.860;5.714;2022-12-18T04:38:44;13.43;;;8.13;;
24453;SDS011;12627;50.860;5.714;2022-12-18T04:41:11;17.50;;;6.27;;
24453;SDS011;12627;50.860;5.714;2022-12-18T04:43:39;10.53;;;6.83;;
24453;SDS011;12627;50.860;5.714;2022-12-18T04:46:07;10.07;;;6.00;;
24453;SDS011;12627;50.860;5.714;2022-12-18T04:48:36;12.33;;;10.53;;
24453;SDS011;12627;50.860;5.714;2022-12-18T04:51:05;5.30;;;3.40;;
24453;SDS011;12627;50.860;5.714;2022-12-18T04:53:33;23.93;;;6.70;;
24453;SDS011;12627;50.860;5.714;2022-12-18T04:56:04;15.43;;;7.03;;
24453;SDS011;12627;50.860;5.714;2022-12-18T04:58:32;6.67;;;6.03;;
24453;SDS011;12627;50.860;5.714;2022-12-18T05:00:59;9.27;;;4.20;;
24453;SDS011;12627;50.860;5.714;2022-12-18T05:03:27;15.03;;;6.00;;
24453;SDS011;12627;50.860;5.714;2022-12-18T05:05:54;10.03;;;5.67;;
24453;SDS011;12627;50.860;5.714;2022-12-18T05:08:23;9.83;;;5.93;;
24453;SDS011;12627;50.860;5.714;2022-12-18T05:10:50;7.33;;;6.00;;
24453;SDS011;12627;50.860;5.714;2022-12-18T05:13:24;5.97;;;4.07;;
24453;SDS011;12627;50.860;5.714;2022-12-18T05:15:52;13.23;;;9.00;;
24453;SDS011;12627;50.860;5.714;2022-12-18T05:18:20;13.40;;;6.43;;
24453;SDS011;12627;50.860;5.714;2022-12-18T05:20:47;9.40;;;4.37;;
24453;SDS011;12627;50.860;5.714;2022-12-18T05:23:15;1.47;;;0.93;;
24453;SDS011;12627;50.860;5.714;2022-12-18T05:25:46;36.37;;;7.50;;
24453;SDS011;12627;50.860;5.714;2022-12-18T05:28:16;5.17;;;3.20;;
24453;SDS011;12627;50.860;5.714;2022-12-18T05:30:46;5.03;;;2.63;;
24453;SDS011;12627;50.860;5.714;2022-12-18T05:33:15;13.33;;;5.80;;
24453;SDS011;12627;50.860;5.714;2022-12-18T05:35:42;3.70;;;2.23;;
24453;SDS011;12627;50.860;5.714;2022-12-18T05:38:10;11.43;;;6.37;;
24453;SDS011;12627;50.860;5.714;2022-12-18T05:40:37;6.43;;;4.07;;
24453;SDS011;12627;50.860;5.714;2022-12-18T05:43:09;15.33;;;6.90;;
24453;SDS011;12627;50.860;5.714;2022-12-18T05:45:36;7.60;;;3.97;;
24453;SDS011;12627;50.860;5.714;2022-12-18T05:48:04;10.70;;;6.87;;
24453;SDS011;12627;50.860;5.714;2022-12-18T05:50:33;4.80;;;3.80;;
24453;SDS011;12627;50.860;5.714;2022-12-18T05:53:01;19.13;;;4.80;;
24453;SDS011;12627;50.860;5.714;2022-12-18T05:55:28;4.50;;;3.23;;
24453;SDS011;12627;50.860;5.714;2022-12-18T05:57:56;10.70;;;6.47;;
24453;SDS011;12627;50.860;5.714;2022-12-18T06:00:24;10.77;;;6.37;;
24453;SDS011;12627;50.860;5.714;2022-12-18T06:02:51;13.83;;;6.23;;
24453;SDS011;12627;50.860;5.714;2022-12-18T06:05:19;12.40;;;8.80;;
24453;SDS011;12627;50.860;5.714;2022-12-18T06:07:46;9.50;;;4.50;;
24453;SDS011;12627;50.860;5.714;2022-12-18T06:10:13;11.20;;;5.43;;
24453;SDS011;12627;50.860;5.714;2022-12-18T06:12:41;13.00;;;5.57;;
24453;SDS011;12627;50.860;5.714;2022-12-18T06:15:08;4.30;;;3.80;;
24453;SDS011;12627;50.860;5.714;2022-12-18T06:17:37;6.87;;;5.13;;
24453;SDS011;12627;50.860;5.714;2022-12-18T06:20:05;9.87;;;5.37;;
24453;SDS011;12627;50.860;5.714;2022-12-18T06:22:32;11.53;;;6.90;;
24453;SDS011;12627;50.860;5.714;2022-12-18T06:25:00;4.30;;;3.17;;
24453;SDS011;12627;50.860;5.714;2022-12-18T06:27:27;7.53;;;4.47;;
24453;SDS011;12627;50.860;5.714;2022-12-18T06:29:54;12.70;;;5.17;;
24453;SDS011;12627;50.860;5.714;2022-12-18T06:32:21;4.17;;;3.00;;
24453;SDS011;12627;50.860;5.714;2022-12-18T06:34:50;16.20;;;6.80;;
24453;SDS011;12627;50.860;5.714;2022-12-18T06:37:18;1.60;;;1.53;;
24453;SDS011;12627;50.860;5.714;2022-12-18T06:39:45;21.23;;;5.43;;
24453;SDS011;12627;50.860;5.714;2022-12-18T06:42:13;5.33;;;2.73;;
24453;SDS011;12627;50.860;5.714;2022-12-18T06:44:40;5.63;;;3.40;;
24453;SDS011;12627;50.860;5.714;2022-12-18T06:47:07;2.30;;;1.63;;
24453;SDS011;12627;50.860;5.714;2022-12-18T06:49:34;14.07;;;3.10;;
24453;SDS011;12627;50.860;5.714;2022-12-18T06:52:03;3.20;;;2.83;;
24453;SDS011;12627;50.860;5.714;2022-12-18T06:54:30;2.57;;;1.73;;
24453;SDS011;12627;50.860;5.714;2022-12-18T06:56:57;3.93;;;2.27;;
24453;SDS011;12627;50.860;5.714;2022-12-18T06:59:24;5.97;;;3.40;;
24453;SDS011;12627;50.860;5.714;2022-12-18T07:01:52;2.93;;;2.53;;
24453;SDS011;12627;50.860;5.714;2022-12-18T07:04:19;4.07;;;2.73;;
24453;SDS011;12627;50.860;5.714;2022-12-18T07:06:46;4.77;;;4.30;;
24453;SDS011;12627;50.860;5.714;2022-12-18T07:09:15;4.43;;;2.30;;
24453;SDS011;12627;50.860;5.714;2022-12-18T07:11:42;3.17;;;2.83;;
24453;SDS011;12627;50.860;5.714;2022-12-18T07:14:09;4.00;;;1.73;;
24453;SDS011;12627;50.860;5.714;2022-12-18T07:16:36;5.13;;;3.20;;
24453;SDS011;12627;50.860;5.714;2022-12-18T07:19:04;2.97;;;2.77;;
24453;SDS011;12627;50.860;5.714;2022-12-18T07:21:31;7.07;;;3.23;;
24453;SDS011;12627;50.860;5.714;2022-12-18T07:23:58;5.20;;;2.90;;
24453;SDS011;12627;50.860;5.714;2022-12-18T07:26:26;6.80;;;4.17;;
24453;SDS011;12627;50.860;5.714;2022-12-18T07:28:54;2.83;;;1.93;;
24453;SDS011;12627;50.860;5.714;2022-12-18T07:31:22;5.43;;;3.17;;
24453;SDS011;12627;50.860;5.714;2022-12-18T07:33:50;3.40;;;2.47;;
24453;SDS011;12627;50.860;5.714;2022-12-18T07:36:17;7.13;;;3.57;;
24453;SDS011;12627;50.860;5.714;2022-12-18T07:38:48;0.00;;;0.00;;
24453;SDS011;12627;50.860;5.714;2022-12-18T07:41:16;1.70;;;1.60;;
24453;SDS011;12627;50.860;5.714;2022-12-18T07:43:45;7.43;;;3.83;;
24453;SDS011;12627;50.860;5.714;2022-12-18T07:46:13;2.07;;;1.57;;
24453;SDS011;12627;50.860;5.714;2022-12-18T07:48:41;2.83;;;2.23;;
24453;SDS011;12627;50.860;5.714;2022-12-18T07:51:12;2.93;;;2.00;;
24453;SDS011;12627;50.860;5.714;2022-12-18T07:53:40;1.80;;;1.70;;
24453;SDS011;12627;50.860;5.714;2022-12-18T07:56:08;10.37;;;3.03;;
24453;SDS011;12627;50.860;5.714;2022-12-18T07:58:36;8.70;;;3.40;;
24453;SDS011;12627;50.860;5.714;2022-12-18T08:01:06;4.00;;;0.83;;
24453;SDS011;12627;50.860;5.714;2022-12-18T08:03:34;2.00;;;1.80;;
24453;SDS011;12627;50.860;5.714;2022-12-18T08:06:02;1.80;;;0.90;;
24453;SDS011;12627;50.860;5.714;2022-12-18T08:08:31;3.97;;;2.20;;
24453;SDS011;12627;50.860;5.714;2022-12-18T08:10:59;2.97;;;2.10;;
24453;SDS011;12627;50.860;5.714;2022-12-18T08:13:27;3.13;;;2.83;;
24453;SDS011;12627;50.860;5.714;2022-12-18T08:15:55;5.07;;;2.97;;
24453;SDS011;12627;50.860;5.714;2022-12-18T08:18:25;8.63;;;4.20;;
24453;SDS011;12627;50.860;5.714;2022-12-18T08:20:52;4.43;;;2.37;;
24453;SDS011;12627;50.860;5.714;2022-12-18T08:23:20;5.73;;;4.27;;
24453;SDS011;12627;50.860;5.714;2022-12-18T08:25:47;1.27;;;1.17;;
24453;SDS011;12627;50.860;5.714;2022-12-18T08:28:16;3.33;;;1.93;;
24453;SDS011;12627;50.860;5.714;2022-12-18T08:30:43;3.87;;;2.93;;
24453;SDS011;12627;50.860;5.714;2022-12-18T08:33:10;12.20;;;5.40;;
24453;SDS011;12627;50.860;5.714;2022-12-18T08:35:39;4.07;;;3.67;;
24453;SDS011;12627;50.860;5.714;2022-12-18T08:38:06;12.43;;;5.73;;
24453;SDS011;12627;50.860;5.714;2022-12-18T08:40:33;10.40;;;5.07;;
24453;SDS011;12627;50.860;5.714;2022-12-18T08:43:01;1.83;;;1.47;;
24453;SDS011;12627;50.860;5.714;2022-12-18T08:45:57;12.37;;;5.67;;
24453;SDS011;12627;50.860;5.714;2022-12-18T08:48:24;6.47;;;3.97;;
24453;SDS011;12627;50.860;5.714;2022-12-18T08:50:56;12.73;;;6.17;;
24453;SDS011;12627;50.860;5.714;2022-12-18T08:53:25;10.57;;;5.40;;
24453;SDS011;12627;50.860;5.714;2022-12-18T08:55:52;7.70;;;4.50;;
24453;SDS011;12627;50.860;5.714;2022-12-18T08:58:19;8.23;;;5.10;;
24453;SDS011;12627;50.860;5.714;2022-12-18T09:00:47;7.83;;;4.10;;
24453;SDS011;12627;50.860;5.714;2022-12-18T09:03:14;10.63;;;5.73;;
24453;SDS011;12627;50.860;5.714;2022-12-18T09:05:44;11.67;;;4.77;;
24453;SDS011;12627;50.860;5.714;2022-12-18T09:08:14;8.83;;;5.30;;
24453;SDS011;12627;50.860;5.714;2022-12-18T09:10:41;8.80;;;5.23;;
24453;SDS011;12627;50.860;5.714;2022-12-18T09:13:09;10.07;;;6.70;;
24453;SDS011;12627;50.860;5.714;2022-12-18T09:15:39;12.07;;;5.13;;
24453;SDS011;12627;50.860;5.714;2022-12-18T09:18:08;7.37;;;5.40;;
24453;SDS011;12627;50.860;5.714;2022-12-18T09:20:35;12.70;;;6.30;;
24453;SDS011;12627;50.860;5.714;2022-12-18T09:23:02;17.20;;;7.40;;
24453;SDS011;12627;50.860;5.714;2022-12-18T09:25:32;12.93;;;6.80;;
24453;SDS011;12627;50.860;5.714;2022-12-18T09:28:01;15.00;;;6.83;;
24453;SDS011;12627;50.860;5.714;2022-12-18T09:30:29;12.90;;;6.20;;
24453;SDS011;12627;50.860;5.714;2022-12-18T09:32:58;10.57;;;5.40;;
24453;SDS011;12627;50.860;5.714;2022-12-18T09:35:26;9.60;;;6.07;;
24453;SDS011;12627;50.860;5.714;2022-12-18T09:37:54;12.90;;;7.10;;
24453;SDS011;12627;50.860;5.714;2022-12-18T09:40:22;12.27;;;6.70;;
24453;SDS011;12627;50.860;5.714;2022-12-18T09:42:54;13.67;;;7.40;;
24453;SDS011;12627;50.860;5.714;2022-12-18T09:45:25;12.13;;;7.43;;
24453;SDS011;12627;50.860;5.714;2022-12-18T09:47:52;13.07;;;6.70;;
24453;SDS011;12627;50.860;5.714;2022-12-18T09:50:23;10.93;;;6.63;;
24453;SDS011;12627;50.860;5.714;2022-12-18T09:52:55;12.30;;;7.63;;
24453;SDS011;12627;50.860;5.714;2022-12-18T09:55:27;10.10;;;5.57;;
24453;SDS011;12627;50.860;5.714;2022-12-18T09:58:00;12.13;;;6.83;;
24453;SDS011;12627;50.860;5.714;2022-12-18T10:00:33;9.80;;;5.57;;
24453;SDS011;12627;50.860;5.714;2022-12-18T10:03:01;12.23;;;6.60;;
24453;SDS011;12627;50.860;5.714;2022-12-18T10:05:36;12.80;;;6.60;;
24453;SDS011;12627;50.860;5.714;2022-12-18T10:08:10;11.73;;;5.80;;
24453;SDS011;12627;50.860;5.714;2022-12-18T10:10:46;9.83;;;6.63;;
24453;SDS011;12627;50.860;5.714;2022-12-18T10:13:21;10.67;;;6.23;;
24453;SDS011;12627;50.860;5.714;2022-12-18T10:15:55;14.03;;;7.67;;
24453;SDS011;12627;50.860;5.714;2022-12-18T10:18:33;13.67;;;6.40;;
24453;SDS011;12627;50.860;5.714;2022-12-18T10:21:17;14.63;;;6.90;;
24453;SDS011;12627;50.860;5.714;2022-12-18T10:23:49;9.07;;;5.30;;
24453;SDS011;12627;50.860;5.714;2022-12-18T10:26:25;13.37;;;7.23;;
24453;SDS011;12627;50.860;5.714;2022-12-18T10:28:54;11.73;;;6.53;;
24453;SDS011;12627;50.860;5.714;2022-12-18T10:31:25;14.60;;;6.60;;
24453;SDS011;12627;50.860;5.714;2022-12-18T10:33:53;10.87;;;5.60;;
24453;SDS011;12627;50.860;5.714;2022-12-18T10:36:20;13.47;;;6.93;;
24453;SDS011;12627;50.860;5.714;2022-12-18T10:38:49;13.17;;;7.63;;
24453;SDS011;12627;50.860;5.714;2022-12-18T10:41:23;11.33;;;6.47;;
24453;SDS011;12627;50.860;5.714;2022-12-18T10:44:10;12.37;;;6.20;;
24453;SDS011;12627;50.860;5.714;2022-12-18T10:46:48;11.87;;;6.37;;
24453;SDS011;12627;50.860;5.714;2022-12-18T10:49:22;13.17;;;6.60;;
24453;SDS011;12627;50.860;5.714;2022-12-18T10:51:51;13.30;;;7.23;;
24453;SDS011;12627;50.860;5.714;2022-12-18T10:54:33;17.13;;;8.63;;
24453;SDS011;12627;50.860;5.714;2022-12-18T10:57:14;15.63;;;7.73;;
24453;SDS011;12627;50.860;5.714;2022-12-18T10:59:51;14.33;;;7.70;;
24453;SDS011;12627;50.860;5.714;2022-12-18T11:02:27;15.33;;;7.40;;
24453;SDS011;12627;50.860;5.714;2022-12-18T11:05:00;12.17;;;7.33;;
24453;SDS011;12627;50.860;5.714;2022-12-18T11:07:46;13.93;;;7.50;;
24453;SDS011;12627;50.860;5.714;2022-12-18T11:10:16;13.37;;;6.77;;
24453;SDS011;12627;50.860;5.714;2022-12-18T11:12:44;11.33;;;6.80;;
24453;SDS011;12627;50.860;5.714;2022-12-18T11:15:18;13.37;;;7.30;;
24453;SDS011;12627;50.860;5.714;2022-12-18T11:17:47;14.53;;;8.13;;
24453;SDS011;12627;50.860;5.714;2022-12-18T11:20:20;14.60;;;8.40;;
24453;SDS011;12627;50.860;5.714;2022-12-18T11:22:57;14.90;;;8.77;;
24453;SDS011;12627;50.860;5.714;2022-12-18T11:25:26;10.87;;;7.57;;
24453;SDS011;12627;50.860;5.714;2022-12-18T11:27:57;14.67;;;7.73;;
24453;SDS011;12627;50.860;5.714;2022-12-18T11:30:28;17.30;;;8.37;;
24453;SDS011;12627;50.860;5.714;2022-12-18T11:32:59;14.00;;;8.40;;
24453;SDS011;12627;50.860;5.714;2022-12-18T11:35:33;13.70;;;7.53;;
24453;SDS011;12627;50.860;5.714;2022-12-18T11:38:12;15.50;;;8.93;;
24453;SDS011;12627;50.860;5.714;2022-12-18T11:40:50;12.47;;;8.07;;
24453;SDS011;12627;50.860;5.714;2022-12-18T11:43:25;16.23;;;7.43;;
24453;SDS011;12627;50.860;5.714;2022-12-18T11:45:56;14.20;;;7.43;;
24453;SDS011;12627;50.860;5.714;2022-12-18T11:48:30;17.43;;;8.50;;
24453;SDS011;12627;50.860;5.714;2022-12-18T11:51:01;18.20;;;9.63;;
24453;SDS011;12627;50.860;5.714;2022-12-18T11:53:31;19.63;;;9.50;;
24453;SDS011;12627;50.860;5.714;2022-12-18T11:56:05;18.93;;;9.50;;
24453;SDS011;12627;50.860;5.714;2022-12-18T11:58:47;17.23;;;10.23;;
24453;SDS011;12627;50.860;5.714;2022-12-18T12:01:23;17.13;;;9.30;;
24453;SDS011;12627;50.860;5.714;2022-12-18T12:04:12;19.77;;;9.00;;
24453;SDS011;12627;50.860;5.714;2022-12-18T12:06:58;17.03;;;9.13;;
24453;SDS011;12627;50.860;5.714;2022-12-18T12:09:37;12.30;;;7.97;;
24453;SDS011;12627;50.860;5.714;2022-12-18T12:12:16;14.40;;;9.23;;
24453;SDS011;12627;50.860;5.714;2022-12-18T12:14:56;14.10;;;8.17;;
24453;SDS011;12627;50.860;5.714;2022-12-18T12:17:34;15.30;;;8.70;;
24453;SDS011;12627;50.860;5.714;2022-12-18T12:20:11;15.10;;;8.47;;
24453;SDS011;12627;50.860;5.714;2022-12-18T12:22:45;17.13;;;10.07;;
24453;SDS011;12627;50.860;5.714;2022-12-18T12:25:23;21.53;;;10.23;;
24453;SDS011;12627;50.860;5.714;2022-12-18T12:28:00;16.60;;;10.00;;
24453;SDS011;12627;50.860;5.714;2022-12-18T12:30:42;20.37;;;11.23;;
24453;SDS011;12627;50.860;5.714;2022-12-18T12:33:18;18.63;;;10.60;;
24453;SDS011;12627;50.860;5.714;2022-12-18T12:36:00;18.13;;;9.93;;
24453;SDS011;12627;50.860;5.714;2022-12-18T12:38:34;16.73;;;10.37;;
24453;SDS011;12627;50.860;5.714;2022-12-18T12:41:04;16.37;;;9.43;;
24453;SDS011;12627;50.860;5.714;2022-12-18T12:43:55;16.00;;;10.77;;
24453;SDS011;12627;50.860;5.714;2022-12-18T12:46:23;17.30;;;11.23;;
24453;SDS011;12627;50.860;5.714;2022-12-18T12:48:54;18.33;;;10.37;;
24453;SDS011;12627;50.860;5.714;2022-12-18T12:51:25;20.20;;;11.10;;
24453;SDS011;12627;50.860;5.714;2022-12-18T12:53:55;16.80;;;10.00;;
24453;SDS011;12627;50.860;5.714;2022-12-18T12:56:24;14.87;;;8.67;;
24453;SDS011;12627;50.860;5.714;2022-12-18T12:58:59;17.13;;;8.87;;
24453;SDS011;12627;50.860;5.714;2022-12-18T13:01:36;15.97;;;9.83;;
24453;SDS011;12627;50.860;5.714;2022-12-18T13:04:12;15.30;;;9.37;;
24453;SDS011;12627;50.860;5.714;2022-12-18T13:06:49;16.40;;;9.40;;
24453;SDS011;12627;50.860;5.714;2022-12-18T13:09:20;18.90;;;9.87;;
24453;SDS011;12627;50.860;5.714;2022-12-18T13:11:48;15.97;;;8.93;;
24453;SDS011;12627;50.860;5.714;2022-12-18T13:14:33;15.70;;;9.40;;
24453;SDS011;12627;50.860;5.714;2022-12-18T13:17:24;14.07;;;8.67;;
24453;SDS011;12627;50.860;5.714;2022-12-18T13:20:11;19.13;;;9.70;;
24453;SDS011;12627;50.860;5.714;2022-12-18T13:22:40;15.67;;;10.20;;
24453;SDS011;12627;50.860;5.714;2022-12-18T13:28:06;18.57;;;9.43;;
24453;SDS011;12627;50.860;5.714;2022-12-18T13:30:46;18.47;;;9.97;;
24453;SDS011;12627;50.860;5.714;2022-12-18T13:33:36;15.33;;;9.40;;
24453;SDS011;12627;50.860;5.714;2022-12-18T13:39:20;14.93;;;9.53;;
24453;SDS011;12627;50.860;5.714;2022-12-18T13:41:49;14.27;;;9.47;;
24453;SDS011;12627;50.860;5.714;2022-12-18T13:44:26;17.63;;;10.20;;
24453;SDS011;12627;50.860;5.714;2022-12-18T13:46:58;17.53;;;11.27;;
24453;SDS011;12627;50.860;5.714;2022-12-18T13:49:28;15.93;;;10.00;;
24453;SDS011;12627;50.860;5.714;2022-12-18T13:52:13;17.27;;;10.83;;
24453;SDS011;12627;50.860;5.714;2022-12-18T13:54:43;19.20;;;9.73;;
24453;SDS011;12627;50.860;5.714;2022-12-18T13:57:24;16.60;;;9.87;;
24453;SDS011;12627;50.860;5.714;2022-12-18T13:59:54;20.10;;;10.10;;
24453;SDS011;12627;50.860;5.714;2022-12-18T14:02:22;18.20;;;10.87;;
24453;SDS011;12627;50.860;5.714;2022-12-18T14:04:50;21.37;;;11.83;;
24453;SDS011;12627;50.860;5.714;2022-12-18T14:07:20;20.60;;;11.40;;
24453;SDS011;12627;50.860;5.714;2022-12-18T14:09:50;19.80;;;11.47;;
24453;SDS011;12627;50.860;5.714;2022-12-18T14:12:21;20.10;;;12.23;;
24453;SDS011;12627;50.860;5.714;2022-12-18T14:15:10;21.50;;;12.43;;
24453;SDS011;12627;50.860;5.714;2022-12-18T14:17:49;22.00;;;12.93;;
24453;SDS011;12627;50.860;5.714;2022-12-18T14:20:17;21.20;;;12.47;;
24453;SDS011;12627;50.860;5.714;2022-12-18T14:22:46;18.43;;;12.20;;
24453;SDS011;12627;50.860;5.714;2022-12-18T14:25:16;23.87;;;12.40;;
24453;SDS011;12627;50.860;5.714;2022-12-18T14:27:46;20.00;;;12.53;;
24453;SDS011;12627;50.860;5.714;2022-12-18T14:30:23;21.40;;;12.27;;
24453;SDS011;12627;50.860;5.714;2022-12-18T14:33:00;22.20;;;13.00;;
24453;SDS011;12627;50.860;5.714;2022-12-18T14:35:35;21.10;;;12.07;;
24453;SDS011;12627;50.860;5.714;2022-12-18T14:38:20;22.80;;;12.57;;
24453;SDS011;12627;50.860;5.714;2022-12-18T14:40:53;23.30;;;13.03;;
24453;SDS011;12627;50.860;5.714;2022-12-18T14:43:25;20.00;;;12.00;;
24453;SDS011;12627;50.860;5.714;2022-12-18T14:45:53;22.40;;;12.73;;
24453;SDS011;12627;50.860;5.714;2022-12-18T14:48:21;22.33;;;12.60;;
24453;SDS011;12627;50.860;5.714;2022-12-18T14:51:00;23.00;;;14.23;;
24453;SDS011;12627;50.860;5.714;2022-12-18T14:53:33;21.70;;;14.17;;
24453;SDS011;12627;50.860;5.714;2022-12-18T14:56:13;21.63;;;13.17;;
24453;SDS011;12627;50.860;5.714;2022-12-18T14:58:49;25.63;;;14.33;;
24453;SDS011;12627;50.860;5.714;2022-12-18T15:01:23;24.90;;;12.90;;
24453;SDS011;12627;50.860;5.714;2022-12-18T15:03:53;25.60;;;14.40;;
24453;SDS011;12627;50.860;5.714;2022-12-18T15:06:31;26.60;;;13.07;;